sensor_id;sensor_type;location;lat;lon;timestamp;temperature;humidity
46356;DHT22;32066;49.474;11.106;2023-02-28T00:00:24;7.00;53.10
46356;DHT22;32066;49.474;11.106;2023-02-28T00:02:53;7.00;53.10
46356;DHT22;32066;49.474;11.106;2023-02-28T00:05:26;7.00;53.20
46356;DHT22;32066;49.474;11.106;2023-02-28T00:07:55;7.00;53.40
46356;DHT22;32066;49.474;11.106;2023-02-28T00:10:25;7.00;53.30
46356;DHT22;32066;49.474;11.106;2023-02-28T00:12:56;6.90;53.30
46356;DHT22;32066;49.474;11.106;2023-02-28T00:15:25;6.90;53.50
46356;DHT22;32066;49.474;11.106;2023-02-28T00:17:54;6.90;53.40
46356;DHT22;32066;49.474;11.106;2023-02-28T00:20:25;6.90;53.40
46356;DHT22;32066;49.474;11.106;2023-02-28T00:22:54;6.90;53.70
46356;DHT22;32066;49.474;11.106;2023-02-28T00:25:24;6.90;53.70
46356;DHT22;32066;49.474;11.106;2023-02-28T00:27:53;6.90;53.60
46356;DHT22;32066;49.474;11.106;2023-02-28T00:30:23;6.90;53.80
46356;DHT22;32066;49.474;11.106;2023-02-28T00:32:52;6.90;53.70
46356;DHT22;32066;49.474;11.106;2023-02-28T00:35:20;6.80;53.70
46356;DHT22;32066;49.474;11.106;2023-02-28T00:37:52;6.80;53.60
46356;DHT22;32066;49.474;11.106;2023-02-28T00:40:20;6.90;53.70
46356;DHT22;32066;49.474;11.106;2023-02-28T00:42:49;6.80;53.80
46356;DHT22;32066;49.474;11.106;2023-02-28T00:45:18;6.80;53.90
46356;DHT22;32066;49.474;11.106;2023-02-28T00:47:47;6.80;53.90
46356;DHT22;32066;49.474;11.106;2023-02-28T00:50:17;6.80;53.80
46356;DHT22;32066;49.474;11.106;2023-02-28T00:52:46;6.80;54.10
46356;DHT22;32066;49.474;11.106;2023-02-28T00:55:17;6.70;54.00
46356;DHT22;32066;49.474;11.106;2023-02-28T00:57:47;6.70;54.20
46356;DHT22;32066;49.474;11.106;2023-02-28T01:00:16;6.70;54.10
46356;DHT22;32066;49.474;11.106;2023-02-28T01:02:45;6.70;54.20
46356;DHT22;32066;49.474;11.106;2023-02-28T01:05:14;6.70;54.10
46356;DHT22;32066;49.474;11.106;2023-02-28T01:07:44;6.60;54.20
46356;DHT22;32066;49.474;11.106;2023-02-28T01:10:13;6.60;54.40
46356;DHT22;32066;49.474;11.106;2023-02-28T01:12:44;6.60;54.30
46356;DHT22;32066;49.474;11.106;2023-02-28T01:15:15;6.60;54.50
46356;DHT22;32066;49.474;11.106;2023-02-28T01:17:44;6.60;54.60
46356;DHT22;32066;49.474;11.106;2023-02-28T01:20:13;6.60;54.60
46356;DHT22;32066;49.474;11.106;2023-02-28T01:22:42;6.60;54.50
46356;DHT22;32066;49.474;11.106;2023-02-28T01:25:10;6.60;54.60
46356;DHT22;32066;49.474;11.106;2023-02-28T01:27:39;6.60;54.60
46356;DHT22;32066;49.474;11.106;2023-02-28T01:30:11;6.60;54.80
46356;DHT22;32066;49.474;11.106;2023-02-28T01:32:40;6.50;54.70
46356;DHT22;32066;49.474;11.106;2023-02-28T01:35:08;6.50;54.80
46356;DHT22;32066;49.474;11.106;2023-02-28T01:37:37;6.50;55.00
46356;DHT22;32066;49.474;11.106;2023-02-28T01:40:07;6.50;55.00
46356;DHT22;32066;49.474;11.106;2023-02-28T01:42:38;6.50;55.10
46356;DHT22;32066;49.474;11.106;2023-02-28T01:45:21;6.50;54.90
46356;DHT22;32066;49.474;11.106;2023-02-28T01:47:52;6.40;55.00
46356;DHT22;32066;49.474;11.106;2023-02-28T01:50:24;6.50;55.10
46356;DHT22;32066;49.474;11.106;2023-02-28T01:52:57;6.50;55.00
46356;DHT22;32066;49.474;11.106;2023-02-28T01:55:31;6.40;55.10
46356;DHT22;32066;49.474;11.106;2023-02-28T01:58:02;6.40;55.10
46356;DHT22;32066;49.474;11.106;2023-02-28T02:00:34;6.40;55.20
46356;DHT22;32066;49.474;11.106;2023-02-28T02:03:07;6.40;55.20
46356;DHT22;32066;49.474;11.106;2023-02-28T02:05:38;6.40;55.30
46356;DHT22;32066;49.474;11.106;2023-02-28T02:08:11;6.40;55.30
46356;DHT22;32066;49.474;11.106;2023-02-28T02:10:44;6.40;55.50
46356;DHT22;32066;49.474;11.106;2023-02-28T02:13:42;6.40;55.50
46356;DHT22;32066;49.474;11.106;2023-02-28T02:16:23;6.30;55.60
46356;DHT22;32066;49.474;11.106;2023-02-28T02:19:01;6.30;55.60
46356;DHT22;32066;49.474;11.106;2023-02-28T02:22:07;6.30;55.60
46356;DHT22;32066;49.474;11.106;2023-02-28T02:25:10;6.30;55.70
46356;DHT22;32066;49.474;11.106;2023-02-28T02:30:46;6.30;55.70
46356;DHT22;32066;49.474;11.106;2023-02-28T02:36:27;6.30;55.80
46356;DHT22;32066;49.474;11.106;2023-02-28T02:39:04;6.20;55.70
46356;DHT22;32066;49.474;11.106;2023-02-28T02:41:37;6.30;55.90
46356;DHT22;32066;49.474;11.106;2023-02-28T02:44:12;6.30;56.00
46356;DHT22;32066;49.474;11.106;2023-02-28T02:46:44;6.20;55.80
46356;DHT22;32066;49.474;11.106;2023-02-28T02:49:16;6.20;55.90
46356;DHT22;32066;49.474;11.106;2023-02-28T02:51:52;6.20;56.10
46356;DHT22;32066;49.474;11.106;2023-02-28T02:54:25;6.20;56.10
46356;DHT22;32066;49.474;11.106;2023-02-28T02:56:58;6.10;56.10
46356;DHT22;32066;49.474;11.106;2023-02-28T02:59:28;6.10;56.20
46356;DHT22;32066;49.474;11.106;2023-02-28T03:02:03;6.10;56.20
46356;DHT22;32066;49.474;11.106;2023-02-28T03:04:38;6.10;56.30
46356;DHT22;32066;49.474;11.106;2023-02-28T03:07:11;6.10;56.40
46356;DHT22;32066;49.474;11.106;2023-02-28T03:09:40;6.10;56.30
46356;DHT22;32066;49.474;11.106;2023-02-28T03:12:12;6.10;56.40
46356;DHT22;32066;49.474;11.106;2023-02-28T03:14:51;6.10;56.50
46356;DHT22;32066;49.474;11.106;2023-02-28T03:20:32;6.00;56.40
46356;DHT22;32066;49.474;11.106;2023-02-28T03:23:16;6.00;56.60
46356;DHT22;32066;49.474;11.106;2023-02-28T03:25:54;6.00;56.60
46356;DHT22;32066;49.474;11.106;2023-02-28T03:28:31;6.00;56.60
46356;DHT22;32066;49.474;11.106;2023-02-28T03:31:06;6.00;56.50
46356;DHT22;32066;49.474;11.106;2023-02-28T03:33:39;6.00;56.70
46356;DHT22;32066;49.474;11.106;2023-02-28T03:36:13;5.90;56.70
46356;DHT22;32066;49.474;11.106;2023-02-28T03:38:49;5.90;56.70
46356;DHT22;32066;49.474;11.106;2023-02-28T03:41:22;5.90;56.90
46356;DHT22;32066;49.474;11.106;2023-02-28T03:43:55;5.90;56.90
46356;DHT22;32066;49.474;11.106;2023-02-28T03:46:27;5.90;56.90
46356;DHT22;32066;49.474;11.106;2023-02-28T03:49:00;5.90;56.70
46356;DHT22;32066;49.474;11.106;2023-02-28T03:51:32;5.90;56.80
46356;DHT22;32066;49.474;11.106;2023-02-28T03:54:08;5.90;56.90
46356;DHT22;32066;49.474;11.106;2023-02-28T03:56:41;5.90;57.00
46356;DHT22;32066;49.474;11.106;2023-02-28T03:59:14;5.90;56.90
46356;DHT22;32066;49.474;11.106;2023-02-28T04:01:45;5.80;56.90
46356;DHT22;32066;49.474;11.106;2023-02-28T04:04:16;5.80;57.00
46356;DHT22;32066;49.474;11.106;2023-02-28T04:06:45;5.80;57.10
46356;DHT22;32066;49.474;11.106;2023-02-28T04:09:16;5.80;57.10
46356;DHT22;32066;49.474;11.106;2023-02-28T04:11:46;5.80;57.10
46356;DHT22;32066;49.474;11.106;2023-02-28T04:14:17;5.80;57.10
46356;DHT22;32066;49.474;11.106;2023-02-28T04:16:46;5.80;57.10
46356;DHT22;32066;49.474;11.106;2023-02-28T04:19:16;5.80;57.10
46356;DHT22;32066;49.474;11.106;2023-02-28T04:21:47;5.80;57.10
46356;DHT22;32066;49.474;11.106;2023-02-28T04:24:21;5.80;57.30
46356;DHT22;32066;49.474;11.106;2023-02-28T04:26:51;5.80;58.30
46356;DHT22;32066;49.474;11.106;2023-02-28T04:29:22;5.80;58.90
46356;DHT22;32066;49.474;11.106;2023-02-28T04:31:51;5.80;59.30
46356;DHT22;32066;49.474;11.106;2023-02-28T04:34:21;5.80;59.70
46356;DHT22;32066;49.474;11.106;2023-02-28T04:36:50;5.80;59.80
46356;DHT22;32066;49.474;11.106;2023-02-28T04:39:24;5.80;60.00
46356;DHT22;32066;49.474;11.106;2023-02-28T04:41:52;5.80;60.10
46356;DHT22;32066;49.474;11.106;2023-02-28T04:44:21;5.80;59.70
46356;DHT22;32066;49.474;11.106;2023-02-28T04:46:50;5.80;59.60
46356;DHT22;32066;49.474;11.106;2023-02-28T04:49:18;5.80;59.40
46356;DHT22;32066;49.474;11.106;2023-02-28T04:51:47;5.80;59.20
46356;DHT22;32066;49.474;11.106;2023-02-28T04:54:16;5.80;59.10
46356;DHT22;32066;49.474;11.106;2023-02-28T04:56:47;5.80;59.00
46356;DHT22;32066;49.474;11.106;2023-02-28T04:59:16;5.70;58.90
46356;DHT22;32066;49.474;11.106;2023-02-28T05:01:46;5.80;58.90
46356;DHT22;32066;49.474;11.106;2023-02-28T05:04:15;5.70;58.90
46356;DHT22;32066;49.474;11.106;2023-02-28T05:06:44;5.70;58.70
46356;DHT22;32066;49.474;11.106;2023-02-28T05:09:13;5.70;58.70
46356;DHT22;32066;49.474;11.106;2023-02-28T05:11:41;5.70;58.70
46356;DHT22;32066;49.474;11.106;2023-02-28T05:14:13;5.70;58.70
46356;DHT22;32066;49.474;11.106;2023-02-28T05:16:42;5.70;58.70
46356;DHT22;32066;49.474;11.106;2023-02-28T05:19:11;5.70;58.70
46356;DHT22;32066;49.474;11.106;2023-02-28T05:21:41;5.70;58.50
46356;DHT22;32066;49.474;11.106;2023-02-28T05:24:12;5.70;58.50
46356;DHT22;32066;49.474;11.106;2023-02-28T05:26:42;5.70;58.50
46356;DHT22;32066;49.474;11.106;2023-02-28T05:29:13;5.70;58.40
46356;DHT22;32066;49.474;11.106;2023-02-28T05:31:42;5.70;58.50
46356;DHT22;32066;49.474;11.106;2023-02-28T05:34:10;5.60;58.50
46356;DHT22;32066;49.474;11.106;2023-02-28T05:36:41;5.60;58.60
46356;DHT22;32066;49.474;11.106;2023-02-28T05:39:10;5.60;58.60
46356;DHT22;32066;49.474;11.106;2023-02-28T05:41:42;5.60;58.60
46356;DHT22;32066;49.474;11.106;2023-02-28T05:44:15;5.60;58.50
46356;DHT22;32066;49.474;11.106;2023-02-28T05:46:44;5.60;58.50
46356;DHT22;32066;49.474;11.106;2023-02-28T05:49:12;5.60;58.50
46356;DHT22;32066;49.474;11.106;2023-02-28T05:51:41;5.60;58.50
46356;DHT22;32066;49.474;11.106;2023-02-28T05:54:10;5.50;58.50
46356;DHT22;32066;49.474;11.106;2023-02-28T05:56:39;5.60;58.50
46356;DHT22;32066;49.474;11.106;2023-02-28T05:59:09;5.50;58.50
46356;DHT22;32066;49.474;11.106;2023-02-28T06:01:42;5.50;58.50
46356;DHT22;32066;49.474;11.106;2023-02-28T06:04:15;5.50;58.60
46356;DHT22;32066;49.474;11.106;2023-02-28T06:06:44;5.50;58.50
46356;DHT22;32066;49.474;11.106;2023-02-28T06:09:13;5.50;58.70
46356;DHT22;32066;49.474;11.106;2023-02-28T06:11:42;5.50;58.60
46356;DHT22;32066;49.474;11.106;2023-02-28T06:14:14;5.50;58.50
46356;DHT22;32066;49.474;11.106;2023-02-28T06:16:47;5.50;58.60
46356;DHT22;32066;49.474;11.106;2023-02-28T06:19:15;5.50;58.60
46356;DHT22;32066;49.474;11.106;2023-02-28T06:21:44;5.50;58.70
46356;DHT22;32066;49.474;11.106;2023-02-28T06:24:13;5.50;58.70
46356;DHT22;32066;49.474;11.106;2023-02-28T06:26:42;5.50;58.80
46356;DHT22;32066;49.474;11.106;2023-02-28T06:29:11;5.50;58.70
46356;DHT22;32066;49.474;11.106;2023-02-28T06:31:46;5.50;58.70
46356;DHT22;32066;49.474;11.106;2023-02-28T06:34:15;5.50;58.70
46356;DHT22;32066;49.474;11.106;2023-02-28T06:36:43;5.50;58.80
46356;DHT22;32066;49.474;11.106;2023-02-28T06:39:12;5.60;58.90
46356;DHT22;32066;49.474;11.106;2023-02-28T06:41:41;5.60;59.00
46356;DHT22;32066;49.474;11.106;2023-02-28T06:44:12;5.60;58.90
46356;DHT22;32066;49.474;11.106;2023-02-28T06:46:42;5.60;58.90
46356;DHT22;32066;49.474;11.106;2023-02-28T06:49:14;5.70;59.10
46356;DHT22;32066;49.474;11.106;2023-02-28T06:51:44;5.70;59.10
46356;DHT22;32066;49.474;11.106;2023-02-28T06:54:13;5.80;59.00
46356;DHT22;32066;49.474;11.106;2023-02-28T06:56:42;5.80;59.00
46356;DHT22;32066;49.474;11.106;2023-02-28T06:59:11;5.90;59.00
46356;DHT22;32066;49.474;11.106;2023-02-28T07:01:40;6.00;58.90
46356;DHT22;32066;49.474;11.106;2023-02-28T07:04:08;6.00;59.00
46356;DHT22;32066;49.474;11.106;2023-02-28T07:06:41;6.10;58.90
46356;DHT22;32066;49.474;11.106;2023-02-28T07:09:09;6.20;58.90
46356;DHT22;32066;49.474;11.106;2023-02-28T07:11:39;6.30;58.80
46356;DHT22;32066;49.474;11.106;2023-02-28T07:14:08;6.40;59.00
46356;DHT22;32066;49.474;11.106;2023-02-28T07:16:37;6.50;59.00
46356;DHT22;32066;49.474;11.106;2023-02-28T07:19:06;6.60;58.90
46356;DHT22;32066;49.474;11.106;2023-02-28T07:21:34;6.80;58.90
46356;DHT22;32066;49.474;11.106;2023-02-28T07:24:06;6.90;58.70
46356;DHT22;32066;49.474;11.106;2023-02-28T07:26:36;7.00;58.60
46356;DHT22;32066;49.474;11.106;2023-02-28T07:29:04;7.20;58.40
46356;DHT22;32066;49.474;11.106;2023-02-28T07:31:33;7.30;58.20
46356;DHT22;32066;49.474;11.106;2023-02-28T07:34:02;7.40;58.10
46356;DHT22;32066;49.474;11.106;2023-02-28T07:36:31;7.50;57.90
46356;DHT22;32066;49.474;11.106;2023-02-28T07:39:00;7.70;57.80
46356;DHT22;32066;49.474;11.106;2023-02-28T07:41:32;7.80;57.50
46356;DHT22;32066;49.474;11.106;2023-02-28T07:44:05;7.90;57.50
46356;DHT22;32066;49.474;11.106;2023-02-28T07:46:34;8.00;57.30
46356;DHT22;32066;49.474;11.106;2023-02-28T07:49:03;8.20;57.20
46356;DHT22;32066;49.474;11.106;2023-02-28T07:51:32;8.30;57.00
46356;DHT22;32066;49.474;11.106;2023-02-28T07:54:01;8.40;56.90
46356;DHT22;32066;49.474;11.106;2023-02-28T07:56:33;8.50;56.80
46356;DHT22;32066;49.474;11.106;2023-02-28T07:59:01;8.60;57.40
46356;DHT22;32066;49.474;11.106;2023-02-28T08:01:30;8.70;56.70
46356;DHT22;32066;49.474;11.106;2023-02-28T08:03:59;8.80;56.70
46356;DHT22;32066;49.474;11.106;2023-02-28T08:06:28;8.90;56.50
46356;DHT22;32066;49.474;11.106;2023-02-28T08:08:57;9.10;56.50
46356;DHT22;32066;49.474;11.106;2023-02-28T08:11:26;9.20;56.30
46356;DHT22;32066;49.474;11.106;2023-02-28T08:13:57;9.30;56.40
46356;DHT22;32066;49.474;11.106;2023-02-28T08:16:26;9.40;56.20
46356;DHT22;32066;49.474;11.106;2023-02-28T08:18:55;9.60;56.00
46356;DHT22;32066;49.474;11.106;2023-02-28T08:21:23;9.70;55.80
46356;DHT22;32066;49.474;11.106;2023-02-28T08:23:52;9.90;55.70
46356;DHT22;32066;49.474;11.106;2023-02-28T08:26:22;10.00;55.60
46356;DHT22;32066;49.474;11.106;2023-02-28T08:28:51;10.10;55.40
46356;DHT22;32066;49.474;11.106;2023-02-28T08:31:23;10.30;55.20
46356;DHT22;32066;49.474;11.106;2023-02-28T08:33:51;10.40;54.70
46356;DHT22;32066;49.474;11.106;2023-02-28T08:36:24;10.50;54.50
46356;DHT22;32066;49.474;11.106;2023-02-28T08:38:54;10.60;54.10
46356;DHT22;32066;49.474;11.106;2023-02-28T08:41:23;10.70;53.60
46356;DHT22;32066;49.474;11.106;2023-02-28T08:43:52;10.80;53.60
46356;DHT22;32066;49.474;11.106;2023-02-28T08:46:23;10.90;54.10
46356;DHT22;32066;49.474;11.106;2023-02-28T08:48:53;11.00;53.60
46356;DHT22;32066;49.474;11.106;2023-02-28T08:51:25;11.00;53.30
46356;DHT22;32066;49.474;11.106;2023-02-28T08:53:55;11.10;52.90
46356;DHT22;32066;49.474;11.106;2023-02-28T08:56:26;11.20;53.30
46356;DHT22;32066;49.474;11.106;2023-02-28T08:58:57;11.30;53.40
46356;DHT22;32066;49.474;11.106;2023-02-28T09:01:29;11.40;53.30
46356;DHT22;32066;49.474;11.106;2023-02-28T09:03:58;11.40;52.90
46356;DHT22;32066;49.474;11.106;2023-02-28T09:06:28;11.50;53.00
46356;DHT22;32066;49.474;11.106;2023-02-28T09:08:57;11.50;52.00
46356;DHT22;32066;49.474;11.106;2023-02-28T09:11:27;11.50;51.90
46356;DHT22;32066;49.474;11.106;2023-02-28T09:13:57;11.60;51.60
46356;DHT22;32066;49.474;11.106;2023-02-28T09:16:28;11.70;51.40
46356;DHT22;32066;49.474;11.106;2023-02-28T09:19:00;11.70;51.40
46356;DHT22;32066;49.474;11.106;2023-02-28T09:21:29;11.90;51.50
46356;DHT22;32066;49.474;11.106;2023-02-28T09:23:57;11.90;51.10
46356;DHT22;32066;49.474;11.106;2023-02-28T09:26:27;12.00;50.70
46356;DHT22;32066;49.474;11.106;2023-02-28T09:28:56;12.10;50.50
46356;DHT22;32066;49.474;11.106;2023-02-28T09:31:28;12.20;50.20
46356;DHT22;32066;49.474;11.106;2023-02-28T09:33:57;12.40;50.40
46356;DHT22;32066;49.474;11.106;2023-02-28T09:36:27;12.40;50.50
46356;DHT22;32066;49.474;11.106;2023-02-28T09:38:56;12.50;50.40
46356;DHT22;32066;49.474;11.106;2023-02-28T09:41:26;12.60;50.40
46356;DHT22;32066;49.474;11.106;2023-02-28T09:44:01;12.70;50.50
46356;DHT22;32066;49.474;11.106;2023-02-28T09:46:38;12.80;49.90
46356;DHT22;32066;49.474;11.106;2023-02-28T09:49:14;13.00;49.70
46356;DHT22;32066;49.474;11.106;2023-02-28T09:51:50;13.10;49.80
46356;DHT22;32066;49.474;11.106;2023-02-28T09:54:21;13.20;49.60
46356;DHT22;32066;49.474;11.106;2023-02-28T09:56:53;13.30;49.10
46356;DHT22;32066;49.474;11.106;2023-02-28T09:59:31;13.40;49.00
46356;DHT22;32066;49.474;11.106;2023-02-28T10:02:15;13.40;48.60
46356;DHT22;32066;49.474;11.106;2023-02-28T10:04:47;13.50;48.80
46356;DHT22;32066;49.474;11.106;2023-02-28T10:07:36;13.60;49.00
46356;DHT22;32066;49.474;11.106;2023-02-28T10:10:18;13.70;49.00
46356;DHT22;32066;49.474;11.106;2023-02-28T10:12:52;13.80;48.90
46356;DHT22;32066;49.474;11.106;2023-02-28T10:15:23;13.90;48.70
46356;DHT22;32066;49.474;11.106;2023-02-28T10:18:00;14.10;48.60
46356;DHT22;32066;49.474;11.106;2023-02-28T10:20:34;14.10;48.50
46356;DHT22;32066;49.474;11.106;2023-02-28T10:23:11;14.30;48.40
46356;DHT22;32066;49.474;11.106;2023-02-28T10:25:40;14.40;48.30
46356;DHT22;32066;49.474;11.106;2023-02-28T10:28:15;14.40;47.90
46356;DHT22;32066;49.474;11.106;2023-02-28T10:30:46;14.60;47.60
46356;DHT22;32066;49.474;11.106;2023-02-28T10:33:22;14.70;47.60
46356;DHT22;32066;49.474;11.106;2023-02-28T10:35:52;14.80;47.30
46356;DHT22;32066;49.474;11.106;2023-02-28T10:38:23;14.90;46.40
46356;DHT22;32066;49.474;11.106;2023-02-28T10:41:04;15.00;46.40
46356;DHT22;32066;49.474;11.106;2023-02-28T10:43:35;15.20;46.10
46356;DHT22;32066;49.474;11.106;2023-02-28T10:46:11;15.30;45.90
46356;DHT22;32066;49.474;11.106;2023-02-28T10:49:00;15.40;45.80
46356;DHT22;32066;49.474;11.106;2023-02-28T10:51:36;15.50;45.70
46356;DHT22;32066;49.474;11.106;2023-02-28T10:54:06;15.60;45.60
46356;DHT22;32066;49.474;11.106;2023-02-28T10:56:43;15.70;45.70
46356;DHT22;32066;49.474;11.106;2023-02-28T10:59:28;15.80;45.70
46356;DHT22;32066;49.474;11.106;2023-02-28T11:01:57;15.80;45.40
46356;DHT22;32066;49.474;11.106;2023-02-28T11:04:36;16.00;45.30
46356;DHT22;32066;49.474;11.106;2023-02-28T11:07:16;16.00;45.20
46356;DHT22;32066;49.474;11.106;2023-02-28T11:09:46;16.10;45.10
46356;DHT22;32066;49.474;11.106;2023-02-28T11:12:25;16.20;45.10
46356;DHT22;32066;49.474;11.106;2023-02-28T11:14:56;16.30;44.90
46356;DHT22;32066;49.474;11.106;2023-02-28T11:17:27;16.40;44.40
46356;DHT22;32066;49.474;11.106;2023-02-28T11:20:03;16.60;44.00
46356;DHT22;32066;49.474;11.106;2023-02-28T11:22:37;16.70;43.60
46356;DHT22;32066;49.474;11.106;2023-02-28T11:25:12;16.80;43.20
46356;DHT22;32066;49.474;11.106;2023-02-28T11:27:48;17.00;42.80
46356;DHT22;32066;49.474;11.106;2023-02-28T11:30:29;17.10;42.60
46356;DHT22;32066;49.474;11.106;2023-02-28T11:33:14;17.20;42.60
46356;DHT22;32066;49.474;11.106;2023-02-28T11:35:50;17.40;42.50
46356;DHT22;32066;49.474;11.106;2023-02-28T11:38:19;17.50;41.90
46356;DHT22;32066;49.474;11.106;2023-02-28T11:41:01;17.60;41.20
46356;DHT22;32066;49.474;11.106;2023-02-28T11:43:50;17.70;41.20
46356;DHT22;32066;49.474;11.106;2023-02-28T11:46:27;17.90;41.00
46356;DHT22;32066;49.474;11.106;2023-02-28T11:49:06;18.00;40.70
46356;DHT22;32066;49.474;11.106;2023-02-28T11:51:47;18.10;40.80
46356;DHT22;32066;49.474;11.106;2023-02-28T11:54:49;18.30;40.70
46356;DHT22;32066;49.474;11.106;2023-02-28T11:57:32;18.40;40.70
46356;DHT22;32066;49.474;11.106;2023-02-28T12:00:10;18.60;40.70
46356;DHT22;32066;49.474;11.106;2023-02-28T12:02:54;18.70;40.70
46356;DHT22;32066;49.474;11.106;2023-02-28T12:05:30;18.80;40.60
46356;DHT22;32066;49.474;11.106;2023-02-28T12:08:20;18.90;41.00
46356;DHT22;32066;49.474;11.106;2023-02-28T12:11:03;19.00;40.60
46356;DHT22;32066;49.474;11.106;2023-02-28T12:13:42;19.10;40.90
46356;DHT22;32066;49.474;11.106;2023-02-28T12:16:37;19.20;40.90
46356;DHT22;32066;49.474;11.106;2023-02-28T12:19:17;19.30;40.80
46356;DHT22;32066;49.474;11.106;2023-02-28T12:27:54;19.60;40.50
46356;DHT22;32066;49.474;11.106;2023-02-28T12:30:25;19.80;40.80
46356;DHT22;32066;49.474;11.106;2023-02-28T12:32:58;19.90;40.80
46356;DHT22;32066;49.474;11.106;2023-02-28T12:35:33;19.90;40.20
46356;DHT22;32066;49.474;11.106;2023-02-28T12:38:06;20.00;39.80
46356;DHT22;32066;49.474;11.106;2023-02-28T12:40:46;20.20;39.30
46356;DHT22;32066;49.474;11.106;2023-02-28T12:43:18;20.30;38.80
46356;DHT22;32066;49.474;11.106;2023-02-28T12:45:52;20.40;39.50
46356;DHT22;32066;49.474;11.106;2023-02-28T12:48:25;20.50;39.40
46356;DHT22;32066;49.474;11.106;2023-02-28T12:50:56;20.60;39.40
46356;DHT22;32066;49.474;11.106;2023-02-28T12:53:29;20.60;39.60
46356;DHT22;32066;49.474;11.106;2023-02-28T12:56:12;20.70;39.60
46356;DHT22;32066;49.474;11.106;2023-02-28T12:58:45;20.80;39.30
46356;DHT22;32066;49.474;11.106;2023-02-28T13:07:54;21.10;39.00
46356;DHT22;32066;49.474;11.106;2023-02-28T13:10:38;21.20;38.40
46356;DHT22;32066;49.474;11.106;2023-02-28T13:13:15;21.40;38.20
46356;DHT22;32066;49.474;11.106;2023-02-28T13:15:59;21.50;37.80
46356;DHT22;32066;49.474;11.106;2023-02-28T13:18:35;21.60;37.60
46356;DHT22;32066;49.474;11.106;2023-02-28T13:21:06;21.70;37.50
46356;DHT22;32066;49.474;11.106;2023-02-28T13:23:41;21.80;37.60
46356;DHT22;32066;49.474;11.106;2023-02-28T13:29:39;22.00;37.30
46356;DHT22;32066;49.474;11.106;2023-02-28T13:32:29;22.10;37.40
46356;DHT22;32066;49.474;11.106;2023-02-28T13:38:36;22.50;37.40
46356;DHT22;32066;49.474;11.106;2023-02-28T13:44:06;22.90;36.30
46356;DHT22;32066;49.474;11.106;2023-02-28T13:49:41;23.50;35.70
46356;DHT22;32066;49.474;11.106;2023-02-28T13:52:15;24.10;34.70
46356;DHT22;32066;49.474;11.106;2023-02-28T13:55:00;24.60;34.50
46356;DHT22;32066;49.474;11.106;2023-02-28T13:57:44;24.70;34.50
46356;DHT22;32066;49.474;11.106;2023-02-28T14:00:28;25.00;34.20
46356;DHT22;32066;49.474;11.106;2023-02-28T14:03:26;25.10;33.10
46356;DHT22;32066;49.474;11.106;2023-02-28T14:06:15;25.30;33.00
46356;DHT22;32066;49.474;11.106;2023-02-28T14:08:53;25.30;33.10
46356;DHT22;32066;49.474;11.106;2023-02-28T14:11:28;25.40;32.60
46356;DHT22;32066;49.474;11.106;2023-02-28T14:13:58;25.30;32.80
46356;DHT22;32066;49.474;11.106;2023-02-28T14:16:28;25.50;32.60
46356;DHT22;32066;49.474;11.106;2023-02-28T14:19:11;25.70;32.50
46356;DHT22;32066;49.474;11.106;2023-02-28T14:21:52;25.60;32.50
46356;DHT22;32066;49.474;11.106;2023-02-28T14:24:51;25.60;32.30
46356;DHT22;32066;49.474;11.106;2023-02-28T14:27:35;25.70;32.30
46356;DHT22;32066;49.474;11.106;2023-02-28T14:30:37;25.70;32.40
46356;DHT22;32066;49.474;11.106;2023-02-28T14:33:18;25.90;32.10
46356;DHT22;32066;49.474;11.106;2023-02-28T14:36:02;25.90;32.00
46356;DHT22;32066;49.474;11.106;2023-02-28T14:38:36;25.90;31.90
46356;DHT22;32066;49.474;11.106;2023-02-28T14:41:16;25.90;31.50
46356;DHT22;32066;49.474;11.106;2023-02-28T14:43:51;25.90;31.80
46356;DHT22;32066;49.474;11.106;2023-02-28T14:46:21;25.90;31.40
46356;DHT22;32066;49.474;11.106;2023-02-28T14:48:51;25.90;31.50
46356;DHT22;32066;49.474;11.106;2023-02-28T14:51:23;25.80;31.40
46356;DHT22;32066;49.474;11.106;2023-02-28T14:53:57;24.70;29.50
46356;DHT22;32066;49.474;11.106;2023-02-28T14:56:30;22.90;29.70
46356;DHT22;32066;49.474;11.106;2023-02-28T14:59:01;21.30;30.30
46356;DHT22;32066;49.474;11.106;2023-02-28T15:01:29;20.70;30.90
46356;DHT22;32066;49.474;11.106;2023-02-28T15:04:02;20.70;31.00
46356;DHT22;32066;49.474;11.106;2023-02-28T15:06:33;20.40;31.50
46356;DHT22;32066;49.474;11.106;2023-02-28T15:09:10;19.80;31.70
46356;DHT22;32066;49.474;11.106;2023-02-28T15:11:40;19.30;32.40
46356;DHT22;32066;49.474;11.106;2023-02-28T15:14:15;19.30;32.40
46356;DHT22;32066;49.474;11.106;2023-02-28T15:16:46;19.20;32.80
46356;DHT22;32066;49.474;11.106;2023-02-28T15:19:20;19.20;33.10
46356;DHT22;32066;49.474;11.106;2023-02-28T15:21:56;19.20;33.50
46356;DHT22;32066;49.474;11.106;2023-02-28T15:24:32;19.10;32.80
46356;DHT22;32066;49.474;11.106;2023-02-28T15:27:05;18.30;33.10
46356;DHT22;32066;49.474;11.106;2023-02-28T15:29:43;18.10;33.60
46356;DHT22;32066;49.474;11.106;2023-02-28T15:32:25;17.90;33.90
46356;DHT22;32066;49.474;11.106;2023-02-28T15:34:55;17.60;34.20
46356;DHT22;32066;49.474;11.106;2023-02-28T15:37:39;17.50;34.50
46356;DHT22;32066;49.474;11.106;2023-02-28T15:40:16;16.90;34.20
46356;DHT22;32066;49.474;11.106;2023-02-28T15:42:58;16.20;35.20
46356;DHT22;32066;49.474;11.106;2023-02-28T15:45:32;15.40;35.80
46356;DHT22;32066;49.474;11.106;2023-02-28T15:48:03;14.90;36.40
46356;DHT22;32066;49.474;11.106;2023-02-28T15:50:32;14.70;37.20
46356;DHT22;32066;49.474;11.106;2023-02-28T15:53:03;14.80;37.50
46356;DHT22;32066;49.474;11.106;2023-02-28T15:55:32;14.70;37.60
46356;DHT22;32066;49.474;11.106;2023-02-28T15:58:02;14.30;37.80
46356;DHT22;32066;49.474;11.106;2023-02-28T16:00:32;13.90;38.20
46356;DHT22;32066;49.474;11.106;2023-02-28T16:03:01;13.60;38.70
46356;DHT22;32066;49.474;11.106;2023-02-28T16:05:30;13.30;39.30
46356;DHT22;32066;49.474;11.106;2023-02-28T16:08:13;13.20;39.30
46356;DHT22;32066;49.474;11.106;2023-02-28T16:10:42;13.10;39.60
46356;DHT22;32066;49.474;11.106;2023-02-28T16:13:12;13.00;39.60
46356;DHT22;32066;49.474;11.106;2023-02-28T16:15:42;12.70;39.60
46356;DHT22;32066;49.474;11.106;2023-02-28T16:18:12;12.40;40.30
46356;DHT22;32066;49.474;11.106;2023-02-28T16:20:41;12.30;40.30
46356;DHT22;32066;49.474;11.106;2023-02-28T16:23:12;12.00;41.10
46356;DHT22;32066;49.474;11.106;2023-02-28T16:25:43;11.90;41.20
46356;DHT22;32066;49.474;11.106;2023-02-28T16:28:17;11.60;41.60
46356;DHT22;32066;49.474;11.106;2023-02-28T16:30:47;11.50;41.90
46356;DHT22;32066;49.474;11.106;2023-02-28T16:33:16;11.50;41.90